Spicewood's Hourly Summary for Saturday, May 12, 2018
Hour Temp
(f)
RH
(%)
Solar Rad.
(MJ/m2)
Rainfall
(in)
Wind
(mph)
5/12/2018 12:00 AM 76 80 0 0 8.75
5/12/2018 1:00 AM 74 82 0 0 8.43
5/12/2018 2:00 AM 73 82 0 0 6.23
5/12/2018 3:00 AM 73 80 0 0 6.09
5/12/2018 4:00 AM 72 83 0 0 5.83
5/12/2018 5:00 AM 72 84 0 0 5.72
5/12/2018 6:00 AM 70 87 0 0 4.44
5/12/2018 7:00 AM 71 87 0.01 0 4.11
5/12/2018 8:00 AM 72 85 0.24 0 3.56
5/12/2018 9:00 AM 76 79 0.6 0 7.02
5/12/2018 10:00 AM 79 65 1.56 0 9.36
5/12/2018 11:00 AM 81 54 1.58 0 8.92
5/12/2018 12:00 PM 84 50 2.78 0 9.36
5/12/2018 1:00 PM 86 48 2.88 0 8.54
5/12/2018 2:00 PM 86 45 3.41 0 8.51
5/12/2018 3:00 PM 88 43 2.75 0 7.46
5/12/2018 4:00 PM 88 42 2.63 0 7.46
5/12/2018 5:00 PM 89 42 0.81 0 7.59
5/12/2018 6:00 PM 89 40 1.53 0 7.45
5/12/2018 7:00 PM 88 40 1.01 0 6.85
5/12/2018 8:00 PM 87 47 0.32 0 5.71
5/12/2018 9:00 PM 84 55 0.01 0 5.04
5/12/2018 10:00 PM 82 64 0 0 7.7
5/12/2018 11:00 PM 79 71 0 0 6.86
Data Summary 79 63 22.12 0.00 6.96